Time;durP1;ratioP1;P1;durP2;ratioP2;P2;SDS_P1;SDS_P2;PMS_P1;PMS_P2;Temp;Humidity;BMP_temperature;BMP_pressure;BME280_temperature;BME280_humidity;BME280_pressure;Samples;Min_cycle;Max_cycle;Signal;HPM_P1;HPM_P2
2022/11/12 00:00:36;;;;;;;7.05;4.10;;;;;;;11.71;66.91;102449.38;4983263;28;20045;-83
2022/11/12 00:03:40;;;;;;;5.90;3.45;;;;;;;11.66;66.42;102446.69;4998193;28;20057;-83
2022/11/12 00:06:43;;;;;;;6.03;3.70;;;;;;;11.68;65.91;102444.50;4999000;28;20609;-83
2022/11/12 00:09:46;;;;;;;5.20;2.83;;;;;;;11.72;65.03;102448.31;4979366;28;20057;-83
2022/11/12 00:12:50;;;;;;;7.38;2.78;;;;;;;11.88;64.56;102459.97;4984802;28;20049;-84
2022/11/12 00:15:53;;;;;;;3.95;2.58;;;;;;;11.85;63.89;102453.16;4997792;28;20696;-82
2022/11/12 00:18:57;;;;;;;3.92;2.47;;;;;;;11.76;63.99;102457.56;4997279;28;20049;-83
2022/11/12 00:22:00;;;;;;;6.25;3.00;;;;;;;11.67;63.78;102451.06;4997924;28;20057;-83
2022/11/12 00:25:04;;;;;;;4.15;2.60;;;;;;;11.32;65.43;102451.19;4997495;28;20401;-83
2022/11/12 00:28:09;;;;;;;6.50;3.00;;;;;;;11.19;65.29;102449.84;4998000;28;20049;-83
2022/11/12 00:31:12;;;;;;;4.57;2.20;;;;;;;11.25;66.13;102439.75;4978689;28;20093;-83
2022/11/12 00:34:16;;;;;;;7.18;3.08;;;;;;;11.36;67.02;102441.38;4977162;28;20070;-84
2022/11/12 00:37:22;;;;;;;3.72;2.10;;;;;;;11.46;69.05;102439.44;4978730;28;20058;-84
2022/11/12 00:40:25;;;;;;;;;;;;;;;11.29;65.86;102435.38;4996802;28;20057;-84
2022/11/12 00:43:29;;;;;;;4.22;2.38;;;;;;;11.32;66.48;102432.13;4997888;28;19913;-84
2022/11/12 00:46:32;;;;;;;4.78;2.63;;;;;;;11.26;66.21;102428.59;4997810;28;20537;-84
2022/11/12 00:49:35;;;;;;;4.22;2.15;;;;;;;11.22;65.98;102410.38;4997633;28;20064;-83
2022/11/12 00:52:38;;;;;;;3.33;1.90;;;;;;;11.13;65.89;102419.09;4997643;28;20053;-84
2022/11/12 00:55:42;;;;;;;5.45;2.65;;;;;;;11.20;66.09;102416.09;4997722;28;20049;-83
2022/11/12 00:58:45;;;;;;;4.30;2.50;;;;;;;11.73;65.79;102420.00;4997953;28;20057;-84
2022/11/12 01:01:49;;;;;;;7.47;2.75;;;;;;;11.96;65.71;102416.56;4997752;28;20065;-83
2022/11/12 01:04:52;;;;;;;5.10;2.83;;;;;;;11.86;69.44;102416.63;4997822;28;20122;-83
2022/11/12 01:07:55;;;;;;;5.75;2.65;;;;;;;11.62;66.11;102432.00;4997839;28;20050;-83
2022/11/12 01:11:08;;;;;;;5.90;2.63;;;;;;;11.25;66.00;102426.16;4978717;28;20050;-82
2022/11/12 01:14:11;;;;;;;3.20;2.25;;;;;;;11.38;69.75;102414.66;4978616;28;20049;-83
2022/11/12 01:17:15;;;;;;;3.53;2.50;;;;;;;11.34;67.52;102419.84;4990337;28;20053;-83
2022/11/12 01:20:18;;;;;;;4.13;2.35;;;;;;;11.20;66.56;102416.09;4996855;28;20069;-83
2022/11/12 01:23:22;;;;;;;4.90;2.42;;;;;;;11.31;68.55;102427.78;4997850;28;20406;-84
2022/11/12 01:26:29;;;;;;;3.50;2.45;;;;;;;11.22;67.80;102421.28;4998092;28;20050;-83
2022/11/12 01:29:33;;;;;;;3.33;2.20;;;;;;;11.05;66.66;102425.13;4998019;28;20053;-83
2022/11/12 01:32:37;;;;;;;3.80;2.20;;;;;;;11.24;70.58;102422.59;4992478;28;20057;-83
2022/11/12 01:35:40;;;;;;;5.10;2.20;;;;;;;10.79;67.03;102420.81;4998605;28;20049;-83
2022/11/12 01:38:45;;;;;;;3.08;2.15;;;;;;;10.68;66.70;102411.03;5001489;28;20042;-83
2022/11/12 01:41:48;;;;;;;3.13;1.85;;;;;;;10.75;66.81;102417.03;4997858;28;20508;-83
2022/11/12 01:44:52;;;;;;;3.90;2.17;;;;;;;10.88;66.08;102415.63;5001083;28;20041;-83
2022/11/12 01:47:56;;;;;;;8.10;2.53;;;;;;;10.91;66.08;102415.09;5001546;28;20122;-83
2022/11/12 01:51:02;;;;;;;4.15;2.47;;;;;;;10.95;66.03;102411.53;5001179;28;20045;-83
2022/11/12 01:54:09;;;;;;;4.75;2.67;;;;;;;11.03;68.37;102397.34;5000798;28;20434;-83
2022/11/12 01:57:14;;;;;;;3.28;1.88;;;;;;;10.85;66.86;102394.41;4995660;28;20053;-83
2022/11/12 02:00:18;;;;;;;3.38;2.15;;;;;;;10.68;66.79;102386.56;5000946;28;20517;-82
2022/11/12 02:03:23;;;;;;;7.63;1.83;;;;;;;10.66;66.22;102381.41;5000492;28;20513;-83
2022/11/12 02:06:27;;;;;;;2.03;1.67;;;;;;;11.08;66.30;102382.91;5000953;28;20140;-83
2022/11/12 02:09:31;;;;;;;4.75;2.28;;;;;;;11.34;66.23;102381.72;5000691;28;20413;-83
2022/11/12 02:15:58;;;;;;;5.10;2.78;;;;;;;10.98;66.05;102378.31;5001071;28;20057;-84
2022/11/12 02:19:05;;;;;;;3.63;2.25;;;;;;;11.19;64.50;102373.63;5000902;28;20061;-82
2022/11/12 02:22:08;;;;;;;4.35;2.30;;;;;;;11.03;65.73;102372.84;5000881;28;20053;-84
2022/11/12 02:25:17;;;;;;;2.80;1.83;;;;;;;11.13;70.44;102375.53;5000062;28;20046;-83
2022/11/12 02:28:20;;;;;;;4.72;2.38;;;;;;;11.12;64.50;102367.66;4981042;28;20401;-83
2022/11/12 02:31:24;;;;;;;3.88;2.30;;;;;;;10.98;64.17;102369.31;4996123;28;20537;-84
2022/11/12 02:34:28;;;;;;;3.17;2.00;;;;;;;10.86;63.79;102358.78;5000268;28;20053;-84
2022/11/12 02:37:31;;;;;;;8.63;2.10;;;;;;;11.01;65.15;102344.28;5000365;28;20045;-84
2022/11/12 02:40:34;;;;;;;4.35;2.28;;;;;;;11.14;66.61;102349.94;5000721;28;20061;-83
2022/11/12 02:43:39;;;;;;;7.00;2.28;;;;;;;11.04;66.86;102352.72;4985156;28;20429;-83
2022/11/12 02:46:42;;;;;;;3.25;2.78;;;;;;;10.94;66.47;102344.59;4998656;28;20049;-83
2022/11/12 02:49:45;;;;;;;3.47;2.20;;;;;;;10.92;65.51;102344.03;4999920;28;20049;-83
2022/11/12 02:52:49;;;;;;;3.10;2.35;;;;;;;10.91;66.05;102333.44;4997104;28;20049;-83
2022/11/12 02:55:52;;;;;;;3.53;2.33;;;;;;;10.99;66.64;102336.41;4999184;28;20065;-83
2022/11/12 02:58:55;;;;;;;6.95;2.15;;;;;;;10.84;66.05;102339.16;4999607;28;20049;-83
2022/11/12 03:01:59;;;;;;;6.40;2.70;;;;;;;11.07;66.66;102338.53;4999898;28;20049;-83
2022/11/12 03:05:02;;;;;;;4.47;2.47;;;;;;;10.94;65.94;102344.59;4999602;28;20041;-83
2022/11/12 03:08:07;;;;;;;3.50;2.22;;;;;;;10.92;65.95;102345.97;4999382;28;20061;-84
2022/11/12 03:11:14;;;;;;;4.47;2.33;;;;;;;10.77;66.32;102344.06;4999556;28;20045;-83
2022/11/12 03:14:17;;;;;;;6.55;2.70;;;;;;;10.82;67.23;102341.34;4998883;28;20050;-83
2022/11/12 03:17:21;;;;;;;7.15;2.90;;;;;;;11.04;66.09;102344.53;4998545;28;20050;-84
2022/11/12 03:20:26;;;;;;;4.57;2.63;;;;;;;11.18;65.96;102343.94;4999562;28;20061;-84
2022/11/12 03:23:30;;;;;;;14.00;2.97;;;;;;;11.09;65.70;102332.81;4998861;28;20049;-83
2022/11/12 03:26:37;;;;;;;3.25;2.40;;;;;;;11.09;65.12;102333.63;4997763;28;20292;-82
2022/11/12 03:29:41;;;;;;;15.43;2.92;;;;;;;10.66;66.60;102337.88;4999498;28;20057;-83
2022/11/12 03:32:44;;;;;;;12.93;3.38;;;;;;;11.13;66.03;102328.44;4999141;28;20046;-83
2022/11/12 03:35:47;;;;;;;4.05;2.00;;;;;;;10.95;66.27;102329.88;4979330;28;20050;-84
2022/11/12 03:38:51;;;;;;;4.78;2.42;;;;;;;11.24;66.12;102335.47;4979384;28;20062;-84
2022/11/12 03:41:54;;;;;;;2.75;2.30;;;;;;;11.34;65.04;102323.72;4979565;28;20591;-83
2022/11/12 03:44:58;;;;;;;5.95;2.67;;;;;;;11.35;64.65;102326.16;4992176;28;20073;-84
2022/11/12 03:48:01;;;;;;;2.97;1.90;;;;;;;11.27;64.86;102320.50;4999440;28;20058;-84
2022/11/12 03:51:05;;;;;;;6.90;2.58;;;;;;;11.09;63.27;102327.38;4998723;28;20053;-83
2022/11/12 03:54:09;;;;;;;5.25;2.10;;;;;;;10.78;64.59;102334.84;4998515;28;20126;-84
2022/11/12 03:57:12;;;;;;;7.45;3.00;;;;;;;11.03;64.44;102332.03;4999286;28;20053;-84
2022/11/12 04:00:16;;;;;;;12.57;2.78;;;;;;;10.82;65.32;102330.47;4998687;28;20525;-84
2022/11/12 04:03:21;;;;;;;7.88;2.67;;;;;;;10.85;65.50;102324.47;4997673;28;20049;-83
2022/11/12 04:09:47;;;;;;;4.43;2.72;;;;;;;10.77;67.46;102322.31;4997697;28;20065;-84
2022/11/12 04:23:03;;;;;;;4.50;3.00;;;;;;;10.43;67.29;102321.31;4991574;28;20057;-84
2022/11/12 04:26:22;;;;;;;4.38;2.83;;;;;;;10.58;66.59;102315.84;4996992;28;20401;-83
2022/11/12 04:32:55;;;;;;;3.83;3.13;;;;;;;11.12;64.62;102302.31;4996359;28;20049;-83
2022/11/12 04:35:59;;;;;;;6.93;2.50;;;;;;;10.89;64.83;102290.16;4996573;28;20069;-83
2022/11/12 04:39:02;;;;;;;4.20;2.83;;;;;;;10.96;64.68;102282.53;4997210;28;20402;-83
2022/11/12 04:45:30;;;;;;;9.48;3.10;;;;;;;10.78;64.46;102280.41;4997204;28;20049;-82
2022/11/12 04:48:33;;;;;;;4.40;2.30;;;;;;;10.76;65.27;102282.63;4996423;28;20057;-82
2022/11/12 04:55:00;;;;;;;4.10;2.90;;;;;;;10.38;67.20;102285.97;4996139;28;20057;-83
2022/11/12 04:58:03;;;;;;;12.57;3.15;;;;;;;10.60;67.05;102275.59;4996625;28;20045;-82
2022/11/12 05:01:07;;;;;;;7.68;3.35;;;;;;;10.67;66.93;102276.09;4996578;28;20057;-83
2022/11/12 05:04:10;;;;;;;15.20;3.72;;;;;;;10.74;68.43;102271.19;4996050;28;20045;-83
2022/11/12 05:07:15;;;;;;;7.10;2.50;;;;;;;10.72;66.42;102270.63;4997008;28;20057;-82
2022/11/12 05:10:19;;;;;;;4.68;2.95;;;;;;;10.38;67.40;102267.75;4997892;28;20062;-84
2022/11/12 05:13:22;;;;;;;4.15;3.30;;;;;;;10.39;70.09;102269.41;5000197;28;20060;-83
2022/11/12 05:16:25;;;;;;;7.07;4.55;;;;;;;10.33;69.90;102272.38;5000252;28;20042;-82
2022/11/12 05:19:29;;;;;;;5.82;3.63;;;;;;;10.28;68.72;102276.75;4998989;28;20057;-84
2022/11/12 05:22:32;;;;;;;7.18;2.95;;;;;;;10.18;68.36;102271.34;4999789;28;20069;-83
2022/11/12 05:25:36;;;;;;;6.97;2.88;;;;;;;10.56;75.03;102269.91;4961788;22;1290848;-80
2022/11/12 05:28:40;;;;;;;5.20;2.95;;;;;;;10.43;68.60;102256.88;4969219;28;20498;-80
2022/11/12 05:31:44;;;;;;;8.45;2.70;;;;;;;10.39;68.05;102250.34;4970020;28;20057;-79
2022/11/12 05:34:47;;;;;;;5.00;2.90;;;;;;;10.53;67.05;102258.75;4969567;28;20065;-79
2022/11/12 05:37:50;;;;;;;3.95;2.72;;;;;;;10.59;67.39;102254.91;4966750;28;20053;-79
2022/11/12 05:40:53;;;;;;;5.97;2.60;;;;;;;10.71;66.85;102250.81;4965581;28;20050;-79
2022/11/12 05:43:57;;;;;;;6.53;2.20;;;;;;;10.49;67.24;102255.75;4956032;28;20061;-78
2022/11/12 05:47:00;;;;;;;7.03;2.35;;;;;;;10.51;67.45;102248.16;4968529;28;20051;-78
2022/11/12 05:50:04;;;;;;;6.88;2.63;;;;;;;10.77;68.28;102251.56;4973519;28;20054;-79
2022/11/12 05:53:07;;;;;;;5.60;3.55;;;;;;;10.93;68.46;102261.28;4969580;28;20046;-81
2022/11/12 05:56:11;;;;;;;5.72;3.50;;;;;;;11.04;67.94;102252.00;4973384;28;20058;-80
2022/11/12 05:59:15;;;;;;;10.13;4.28;;;;;;;10.94;67.17;102257.50;4968482;28;20521;-79
2022/11/12 06:02:18;;;;;;;9.52;5.30;;;;;;;10.86;67.35;102249.09;4965688;28;20074;-79
2022/11/12 06:05:21;;;;;;;7.15;3.90;;;;;;;10.69;70.01;102239.38;4972175;28;20053;-79
2022/11/12 06:08:24;;;;;;;4.53;2.80;;;;;;;10.54;70.40;102244.06;4956583;28;20050;-78
2022/11/12 06:11:28;;;;;;;4.60;3.10;;;;;;;10.44;72.36;102239.47;4965060;28;20054;-78
2022/11/12 06:14:31;;;;;;;4.15;2.58;;;;;;;10.31;69.86;102250.13;4969454;28;20045;-78
2022/11/12 06:17:35;;;;;;;9.25;2.67;;;;;;;10.32;73.87;102244.38;4972912;28;20612;-77
2022/11/12 06:20:38;;;;;;;8.30;3.10;;;;;;;10.41;70.11;102242.75;4973305;28;20410;-78
2022/11/12 06:23:42;;;;;;;5.47;2.60;;;;;;;10.27;68.62;102247.09;4972697;28;20238;-78
2022/11/12 06:26:45;;;;;;;3.47;2.30;;;;;;;10.21;68.78;102243.59;4972852;28;20061;-77
2022/11/12 06:29:49;;;;;;;5.97;3.00;;;;;;;10.40;69.04;102245.72;4972917;28;20101;-79
2022/11/12 06:32:52;;;;;;;5.97;3.35;;;;;;;10.29;69.04;102242.22;4973169;28;20041;-80
2022/11/12 06:35:57;;;;;;;5.65;2.83;;;;;;;10.50;68.96;102245.69;4971068;28;20065;-78
2022/11/12 06:39:00;;;;;;;8.50;2.47;;;;;;;10.53;68.39;102245.13;4973052;28;20516;-79
2022/11/12 06:42:03;;;;;;;8.07;3.17;;;;;;;10.27;67.93;102237.06;4972732;28;20046;-78
2022/11/12 06:45:07;;;;;;;4.57;2.75;;;;;;;10.39;67.75;102238.66;4972989;28;20053;-78
2022/11/12 06:48:11;;;;;;;9.13;2.65;;;;;;;10.33;70.20;102237.84;4974794;28;20042;-78
2022/11/12 06:51:18;;;;;;;10.50;5.68;;;;;;;10.49;70.53;102244.06;4986103;28;20054;-79
2022/11/12 06:54:21;;;;;;;5.40;3.13;;;;;;;10.37;70.27;102238.94;4953375;29;20046;-79
2022/11/12 06:57:25;;;;;;;5.65;2.70;;;;;;;10.24;71.10;102229.47;4967038;28;20054;-78
2022/11/12 07:00:28;;;;;;;6.18;3.63;;;;;;;10.30;70.74;102235.72;4966683;28;20521;-78
2022/11/12 07:03:32;;;;;;;6.55;3.17;;;;;;;10.58;69.00;102240.50;4972517;28;20049;-77
2022/11/12 07:06:35;;;;;;;4.50;2.67;;;;;;;10.89;67.83;102243.09;4972202;28;20041;-78
2022/11/12 07:09:39;;;;;;;6.15;3.50;;;;;;;10.97;67.96;102234.34;4972493;28;20053;-78
2022/11/12 07:12:42;;;;;;;6.22;4.20;;;;;;;10.94;67.62;102233.00;4994657;28;20044;-78
2022/11/12 07:15:46;;;;;;;8.55;4.32;;;;;;;10.84;68.13;102240.38;4966912;28;20073;-77
2022/11/12 07:18:49;;;;;;;4.88;3.83;;;;;;;10.69;68.79;102227.66;4955600;28;20046;-78
2022/11/12 07:21:53;;;;;;;12.20;5.43;;;;;;;10.82;68.91;102231.72;4953160;29;20078;-79
2022/11/12 07:24:56;;;;;;;10.93;4.60;;;;;;;10.63;69.73;102229.59;4952795;29;20050;-79
2022/11/12 07:28:00;;;;;;;9.95;5.15;;;;;;;10.67;70.80;102236.09;4960275;28;20046;-81
2022/11/12 07:31:06;;;;;;;13.18;4.82;;;;;;;10.71;72.19;102242.63;4970593;28;20037;-79
2022/11/12 07:34:09;;;;;;;9.95;4.47;;;;;;;10.71;73.72;102242.63;5028545;28;20053;-80
2022/11/12 07:37:12;;;;;;;7.95;4.43;;;;;;;10.66;73.66;102233.69;4960696;28;20046;-79
2022/11/12 07:40:16;;;;;;;9.30;5.28;;;;;;;10.67;73.31;102241.53;4966883;28;20049;-79
2022/11/12 07:43:19;;;;;;;6.10;3.55;;;;;;;10.75;72.52;102223.84;4971505;28;20050;-80
2022/11/12 07:46:25;;;;;;;5.65;3.92;;;;;;;10.80;71.84;102226.53;5011607;28;20051;-80
2022/11/12 07:49:28;;;;;;;;;;;;;;;10.89;71.56;102233.03;4984982;28;20530;-81
2022/11/12 07:52:32;;;;;;;8.93;4.03;;;;;;;10.99;71.87;102230.25;4965113;28;19918;-79
2022/11/12 07:55:36;;;;;;;5.82;4.68;;;;;;;11.04;70.92;102230.22;4971674;28;20114;-79
2022/11/12 07:58:39;;;;;;;10.05;4.72;;;;;;;11.09;70.29;102229.38;4975560;28;20045;-80
2022/11/12 08:01:44;;;;;;;7.32;4.05;;;;;;;11.17;70.18;102233.41;4971251;28;20405;-78
2022/11/12 08:04:47;;;;;;;9.57;4.70;;;;;;;11.24;70.75;102239.34;4972369;28;20070;-78
2022/11/12 08:07:52;;;;;;;9.00;4.53;;;;;;;11.08;71.26;102239.44;4982526;28;20054;-79
2022/11/12 08:10:57;;;;;;;11.82;6.30;;;;;;;11.11;71.05;102255.22;4952594;29;20105;-80
2022/11/12 08:14:01;;;;;;;14.88;8.93;;;;;;;11.08;71.93;102255.78;4974416;28;20066;-79
2022/11/12 08:17:05;;;;;;;21.00;9.48;;;;;;;11.11;72.34;102259.84;4979086;28;20081;-79
2022/11/12 08:20:09;;;;;;;13.32;11.52;;;;;;;11.24;71.75;102255.69;4975309;28;20062;-80
2022/11/12 08:23:12;;;;;;;9.85;7.35;;;;;;;11.24;72.20;102251.06;4970523;28;20047;-80
2022/11/12 08:26:17;;;;;;;8.10;5.75;;;;;;;11.17;72.79;102245.13;4971187;28;20058;-79
2022/11/12 08:29:22;;;;;;;10.15;6.00;;;;;;;11.20;72.85;102232.84;4964816;28;20058;-80
2022/11/12 08:32:25;;;;;;;17.58;6.15;;;;;;;11.17;73.19;102220.63;4970947;28;20069;-79
2022/11/12 08:35:31;;;;;;;15.98;6.15;;;;;;;11.21;73.60;102220.88;4970617;28;20054;-78
2022/11/12 08:38:35;;;;;;;;;;;;;;;11.32;73.11;102227.88;4971586;28;20046;-78
2022/11/12 08:41:38;;;;;;;16.88;5.90;;;;;;;11.38;73.32;102234.88;4971220;28;20335;-79
2022/11/12 08:44:41;;;;;;;8.68;5.72;;;;;;;11.43;72.95;102232.13;4970644;28;20054;-79
2022/11/12 08:47:45;;;;;;;13.68;6.50;;;;;;;11.44;73.06;102218.22;4968284;28;20418;-79
2022/11/12 08:50:50;;;;;;;17.15;5.63;;;;;;;11.44;73.51;102233.75;4970740;28;20046;-79
2022/11/12 08:53:54;;;;;;;12.20;6.13;;;;;;;11.53;73.03;102234.78;4970030;28;20049;-80
2022/11/12 08:56:57;;;;;;;10.07;6.07;;;;;;;11.62;72.84;102235.81;4951404;29;20428;-79
2022/11/12 09:00:00;;;;;;;10.32;6.18;;;;;;;11.65;72.84;102237.16;4951578;29;20510;-78
2022/11/12 09:03:07;;;;;;;8.55;5.82;;;;;;;11.53;73.89;102221.97;4951734;29;20054;-78
2022/11/12 09:06:10;;;;;;;10.48;5.57;;;;;;;11.56;74.49;102223.31;4962855;28;20057;-78
2022/11/12 09:09:13;;;;;;;19.42;6.45;;;;;;;11.62;73.82;102230.38;4976511;28;20513;-78
2022/11/12 09:12:18;;;;;;;11.05;6.53;;;;;;;11.64;74.00;102236.34;4968968;28;20057;-78
2022/11/12 09:15:23;;;;;;;15.52;7.72;;;;;;;11.70;74.45;102231.66;4953490;28;20054;-80
2022/11/12 09:18:27;;;;;;;12.65;7.05;;;;;;;11.70;75.14;102226.19;4951373;29;20050;-79
2022/11/12 09:21:30;;;;;;;16.60;6.55;;;;;;;11.77;75.27;102224.00;4959810;28;20050;-77
2022/11/12 09:24:33;;;;;;;17.42;7.18;;;;;;;11.83;74.99;102226.41;4974343;28;20049;-78
2022/11/12 09:27:37;;;;;;;17.80;8.18;;;;;;;11.86;74.51;102228.56;4971420;28;20042;-77
2022/11/12 09:30:46;;;;;;;16.38;7.30;;;;;;;11.92;75.18;102224.69;4965974;28;20058;-77
2022/11/12 09:33:50;;;;;;;17.80;8.27;;;;;;;12.03;76.11;102239.03;4972542;28;20555;-78
2022/11/12 09:36:54;;;;;;;16.17;8.15;;;;;;;12.07;74.83;102223.72;4962648;28;20548;-77
2022/11/12 09:39:57;;;;;;;13.43;8.35;;;;;;;12.09;74.68;102226.94;4970300;28;20046;-76
2022/11/12 09:43:11;;;;;;;14.00;7.55;;;;;;;12.15;74.44;102214.91;4969883;28;20073;-77
2022/11/12 09:46:36;;;;;;;16.08;8.57;;;;;;;12.22;74.10;102217.28;4968018;28;20050;-79
2022/11/12 09:49:49;;;;;;;13.98;7.10;;;;;;;12.22;74.43;102211.84;5001377;28;20539;-79
2022/11/12 09:53:02;;;;;;;22.70;8.45;;;;;;;12.27;74.44;102203.59;5025845;28;20054;-79
2022/11/12 09:56:11;;;;;;;19.88;8.18;;;;;;;12.32;74.46;102217.19;4962009;28;20544;-78
2022/11/12 09:59:15;;;;;;;11.70;8.02;;;;;;;12.83;73.65;102212.72;4966550;28;20042;-77
2022/11/12 10:02:37;;;;;;;24.58;9.07;;;;;;;13.37;71.29;102214.13;4966833;28;20054;-78
2022/11/12 10:05:57;;;;;;;15.98;9.05;;;;;;;13.56;69.45;102208.66;4954779;28;20050;-78
2022/11/12 10:09:10;;;;;;;24.23;9.07;;;;;;;13.47;71.25;102199.50;4955638;29;20054;-78
2022/11/12 10:12:33;;;;;;;12.90;7.82;;;;;;;13.61;70.26;102187.50;4956174;29;20130;-77
2022/11/12 10:19:37;;;;;;;12.77;8.27;;;;;;;14.13;68.99;102169.88;4956414;29;20054;-77
2022/11/12 10:22:59;;;;;;;13.13;7.55;;;;;;;13.92;70.73;102170.56;4963082;28;20053;-76
2022/11/12 10:26:11;;;;;;;14.35;8.27;;;;;;;14.01;70.76;102155.91;4973388;28;20045;-77
2022/11/12 10:29:45;;;;;;;15.40;8.23;;;;;;;14.01;71.03;102144.97;4975181;28;20066;-77
2022/11/12 10:32:51;;;;;;;21.35;8.73;;;;;;;14.38;70.08;102129.44;4970011;28;20418;-77
2022/11/12 10:36:07;;;;;;;15.68;8.27;;;;;;;14.43;68.92;102132.91;4975170;28;20073;-77
2022/11/12 10:39:34;;;;;;;12.93;8.07;;;;;;;15.13;65.28;102140.63;4975183;28;20042;-76
2022/11/12 10:43:03;;;;;;;12.60;7.40;;;;;;;15.28;65.08;102139.44;4974879;28;20062;-76
2022/11/12 10:46:19;;;;;;;15.75;8.13;;;;;;;15.48;66.02;102149.09;4975080;28;20058;-77
2022/11/12 10:49:24;;;;;;;15.68;6.03;;;;;;;15.89;67.80;102155.16;4975582;28;20053;-77
2022/11/12 10:52:27;;;;;;;15.07;8.27;;;;;;;15.81;64.90;102148.50;4973566;28;20517;-77
2022/11/12 10:55:37;;;;;;;17.20;7.82;;;;;;;15.77;63.80;102144.75;4975195;28;20058;-77
2022/11/12 10:58:40;;;;;;;13.32;7.65;;;;;;;15.27;66.30;102138.63;4974738;28;20050;-77
2022/11/12 11:01:45;;;;;;;14.88;7.93;;;;;;;15.07;67.87;102128.16;4974646;28;20053;-77
2022/11/12 11:04:49;;;;;;;13.68;7.20;;;;;;;15.21;67.16;102134.41;4974873;28;20058;-77
2022/11/12 11:07:52;;;;;;;10.88;7.20;;;;;;;15.35;68.04;102135.13;4973616;28;20421;-78
2022/11/12 11:11:16;;;;;;;16.85;9.32;;;;;;;15.10;66.32;102132.19;4971528;28;20548;-77
2022/11/12 11:14:22;;;;;;;28.98;12.15;;;;;;;14.88;68.89;102125.59;4968501;28;20050;-77
2022/11/12 11:17:26;;;;;;;19.48;11.02;;;;;;;14.41;70.86;102115.16;4970491;28;20039;-77
2022/11/12 11:20:50;;;;;;;24.23;10.15;;;;;;;14.76;69.64;102105.34;4974463;28;20505;-78
2022/11/12 11:24:32;;;;;;;22.13;11.50;;;;;;;14.51;71.13;102096.59;4974605;28;20047;-77
2022/11/12 11:28:13;;;;;;;15.63;9.43;;;;;;;14.46;71.20;102101.38;5087650;22;20519;-81
2022/11/12 11:31:45;;;;;;;21.15;10.18;;;;;;;14.50;71.33;102085.94;5074989;28;20047;-79
2022/11/12 11:35:14;;;;;;;22.65;10.40;;;;;;;14.47;71.41;102079.19;5075920;28;20048;-81
2022/11/12 11:38:29;;;;;;;17.85;9.88;;;;;;;14.50;71.47;102075.81;5047470;28;20045;-81
2022/11/12 11:41:46;;;;;;;19.17;9.65;;;;;;;14.54;70.58;102074.06;5051216;28;20056;-81
2022/11/12 11:45:17;;;;;;;16.88;9.27;;;;;;;14.80;68.72;102073.47;5050885;28;20063;-81
2022/11/12 11:48:48;;;;;;;14.73;9.68;;;;;;;14.94;68.27;102066.00;5049106;28;20056;-81
2022/11/12 11:52:25;;;;;;;21.00;9.15;;;;;;;15.04;68.63;102073.97;5054732;28;20051;-79
2022/11/12 11:55:37;;;;;;;16.20;6.85;;;;;;;15.03;69.03;102061.44;5046955;28;20056;-81
2022/11/12 11:59:02;;;;;;;18.77;10.93;;;;;;;15.03;69.68;102060.63;5051388;28;20048;-82
2022/11/12 12:02:24;;;;;;;21.48;10.90;;;;;;;15.06;69.46;102054.50;5054751;28;20044;-82
2022/11/12 12:06:02;;;;;;;24.27;11.57;;;;;;;15.33;70.44;102051.63;5055745;28;20036;-82
2022/11/12 12:09:26;;;;;;;17.83;11.02;;;;;;;15.26;69.82;102040.28;5056233;28;20048;-82
2022/11/12 12:12:51;;;;;;;20.98;11.55;;;;;;;15.42;70.22;102038.75;5055814;28;20415;-82
2022/11/12 12:16:03;;;;;;;24.10;11.57;;;;;;;15.52;69.69;102046.72;5055707;28;20045;-81
2022/11/12 12:19:29;;;;;;;20.88;11.60;;;;;;;16.26;71.40;102041.28;5048211;28;20056;-81
2022/11/12 12:22:40;;;;;;;19.00;10.80;;;;;;;16.64;69.20;102038.75;5043993;28;20405;-81
2022/11/12 12:25:45;;;;;;;16.95;9.32;;;;;;;17.28;70.53;102036.88;5045055;28;20400;-81
2022/11/12 12:29:14;;;;;;;16.95;10.65;;;;;;;16.66;65.26;102033.72;5055855;28;20052;-82
2022/11/12 12:32:26;;;;;;;20.58;10.85;;;;;;;16.47;66.88;102028.53;5055340;28;20040;-81
2022/11/12 12:35:35;;;;;;;14.57;9.27;;;;;;;16.77;67.10;102031.47;5055186;28;20053;-81
2022/11/12 12:38:44;;;;;;;17.70;9.73;;;;;;;16.37;66.04;102026.13;5055111;28;20044;-80
2022/11/12 12:42:17;;;;;;;20.88;10.00;;;;;;;16.11;66.33;102031.56;5053293;28;20063;-79
2022/11/12 12:45:42;;;;;;;15.40;10.13;;;;;;;15.96;67.12;102018.31;5053099;28;20395;-80
2022/11/12 12:48:47;;;;;;;17.92;10.52;;;;;;;15.88;67.27;102018.31;5052449;28;20044;-79
2022/11/12 12:51:51;;;;;;;16.48;10.70;;;;;;;15.74;67.80;102015.69;5051425;28;20411;-80
2022/11/12 12:54:55;;;;;;;19.88;10.23;;;;;;;15.83;67.40;102022.00;5046536;28;20057;-79
2022/11/12 12:57:59;;;;;;;17.42;10.48;;;;;;;15.69;68.24;102021.31;5055487;28;20044;-80
2022/11/12 13:01:04;;;;;;;23.50;10.00;;;;;;;15.70;68.59;102025.66;5051584;28;20049;-81
2022/11/12 13:04:08;;;;;;;16.55;7.28;;;;;;;15.74;68.06;102023.91;5053822;28;20427;-83
2022/11/12 13:07:11;;;;;;;18.38;9.90;;;;;;;15.73;67.50;102011.31;5053493;28;20051;-82
2022/11/12 13:10:45;;;;;;;16.30;11.23;;;;;;;15.71;68.23;102010.81;5034308;28;20508;-82
2022/11/12 13:13:49;;;;;;;13.88;9.63;;;;;;;15.57;69.15;102015.63;5034350;28;20045;-82
2022/11/12 13:16:52;;;;;;;13.73;9.50;;;;;;;15.38;70.19;102013.91;5035042;28;20052;-82
2022/11/12 13:19:57;;;;;;;12.93;9.07;;;;;;;15.45;70.07;102018.09;5034944;28;20052;-84
2022/11/12 13:23:01;;;;;;;15.00;9.70;;;;;;;15.46;70.89;102015.06;5034392;28;20040;-82
2022/11/12 13:26:44;;;;;;;17.10;11.05;;;;;;;15.74;70.08;102015.69;5034383;28;20064;-82
2022/11/12 13:29:47;;;;;;;17.85;11.43;;;;;;;15.97;69.22;102013.63;5034198;28;20045;-80
2022/11/12 13:32:51;;;;;;;17.08;11.70;;;;;;;16.06;68.47;102009.78;5037048;28;20492;-79
2022/11/12 13:36:21;;;;;;;16.20;11.38;;;;;;;15.86;69.44;102010.38;5038855;28;20050;-81
2022/11/12 13:39:25;;;;;;;16.58;10.52;;;;;;;15.54;70.19;102006.09;5037787;28;20046;-81
2022/11/12 13:42:51;;;;;;;19.85;11.70;;;;;;;15.22;70.98;102015.44;5038573;28;20500;-82
2022/11/12 13:46:09;;;;;;;17.58;11.65;;;;;;;15.14;71.52;102018.94;5044421;28;20045;-80
2022/11/12 13:49:15;;;;;;;16.52;11.40;;;;;;;15.03;72.42;102005.81;5057993;28;20408;-80
2022/11/12 13:52:19;;;;;;;18.98;11.82;;;;;;;14.83;72.28;102005.19;5057233;28;20048;-80
2022/11/12 13:55:23;;;;;;;19.83;12.23;;;;;;;14.79;72.78;102015.16;5058133;28;20037;-80
2022/11/12 13:58:29;;;;;;;29.45;13.43;;;;;;;14.62;73.48;102006.84;5058162;28;20044;-80
2022/11/12 14:01:33;;;;;;;21.58;13.05;;;;;;;14.58;73.75;101994.09;5057735;28;20229;-80
2022/11/12 14:04:36;;;;;;;19.48;12.85;;;;;;;14.62;73.57;101989.59;5057781;28;20044;-81
2022/11/12 14:07:46;;;;;;;16.30;11.63;;;;;;;14.67;72.90;102003.16;5057069;28;20045;-81
2022/11/12 14:11:25;;;;;;;20.10;12.65;;;;;;;14.50;74.05;101993.69;5046367;28;20033;-81
2022/11/12 14:15:13;;;;;;;18.10;11.50;;;;;;;14.45;74.33;102004.78;5039185;28;20412;-80
2022/11/12 14:18:24;;;;;;;24.27;13.90;;;;;;;14.22;74.54;101994.06;5055918;28;20416;-80
2022/11/12 14:21:28;;;;;;;18.40;13.40;;;;;;;14.30;74.58;101998.81;5045348;28;20042;-81
2022/11/12 14:24:32;;;;;;;23.02;12.45;;;;;;;14.24;74.52;101998.09;5037196;28;20049;-81
2022/11/12 14:27:35;;;;;;;20.83;14.07;;;;;;;14.37;74.34;101993.75;5037167;28;20042;-80
2022/11/12 14:30:43;;;;;;;18.42;12.48;;;;;;;14.36;74.30;101995.69;5037348;28;20508;-80
2022/11/12 14:33:47;;;;;;;17.45;12.38;;;;;;;14.30;74.82;101996.88;5036970;28;20033;-79
2022/11/12 14:36:54;;;;;;;17.98;13.07;;;;;;;14.40;74.34;101993.13;5036977;28;20045;-79
2022/11/12 14:39:58;;;;;;;20.52;14.00;;;;;;;14.57;73.40;101987.00;5037328;28;20045;-81
2022/11/12 14:43:02;;;;;;;18.70;12.60;;;;;;;14.64;72.82;101982.69;5036726;28;20045;-80
2022/11/12 14:46:06;;;;;;;24.60;13.68;;;;;;;14.59;73.13;101984.72;5037334;28;20042;-80
2022/11/12 14:49:38;;;;;;;20.33;13.23;;;;;;;14.41;73.65;101992.00;5037112;28;20405;-79
2022/11/12 14:52:46;;;;;;;19.83;13.07;;;;;;;14.14;75.29;101985.47;5041462;28;20045;-79
2022/11/12 14:55:52;;;;;;;20.15;12.23;;;;;;;14.25;75.17;101990.72;5054162;28;20428;-79
2022/11/12 14:58:56;;;;;;;;;;;;;;;14.20;75.34;101983.44;5052801;28;20400;-79